Weather at Simenti Airport

Public forecast

Using degrees Celsius for public forecast. Weather courtesy of forecast.io.

Closest aviation weather report (METAR) to Simenti Airport

Report is more than 6 hours old.

Closest report is Tambacounda Airport, 46.4 nm (85.9 km) NNW.

2022/11/14 15:00 (retrieved 2 years ago)

GOTT 141500Z 30003KT CAVOK 35/16 Q1010

Closest aviation forecast (TAF) to Simenti Airport

Forecast is more than 12 hours old.

Closest forecast is Osvaldo Vieira International Airport, 154.6 nm (286.3 km) WSW.

2023/02/22 18:00 (retrieved 1 year ago)

TAF GGOV 221700Z 2218/2318 VRB05KT 6000 NSC